createdAt,value
2018-07-15T00:00:33.541Z,100861.84
2018-07-15T00:01:37.057Z,100854.67
2018-07-15T00:02:40.507Z,100863.23
2018-07-15T00:03:43.930Z,100856.28
2018-07-15T00:04:47.386Z,100859.28
2018-07-15T00:05:50.808Z,100853.73
2018-07-15T00:06:54.200Z,100857.31
2018-07-15T00:07:57.701Z,100857.31
2018-07-15T00:09:01.122Z,100859.28
2018-07-15T00:10:04.593Z,100860.89
2018-07-15T00:11:08.127Z,100852.92
2018-07-15T00:12:11.513Z,100855.92
2018-07-15T00:13:15.423Z,100860.53
2018-07-15T00:14:18.872Z,100859.95
2018-07-15T00:15:22.322Z,100858.78
2018-07-15T00:16:25.760Z,100860.75
2018-07-15T00:17:29.187Z,100855.63
2018-07-15T00:18:32.610Z,100863.17
2018-07-15T00:19:36.100Z,100856.44
2018-07-15T00:20:39.508Z,100855.63
2018-07-15T00:21:42.933Z,100857.83
2018-07-15T00:22:46.316Z,100859.22
2018-07-15T00:23:49.750Z,100856.66
2018-07-15T00:24:53.162Z,100855.05
2018-07-15T00:25:56.545Z,100855.27
2018-07-15T00:26:59.998Z,100856.66
2018-07-15T00:28:03.726Z,100855.27
2018-07-15T00:29:07.163Z,100850.55
2018-07-15T00:30:10.574Z,100856.66
2018-07-15T00:31:13.969Z,100852.96
2018-07-15T00:32:17.517Z,100850.18
2018-07-15T00:33:20.993Z,100854.13
2018-07-15T00:34:24.486Z,100854.94
2018-07-15T00:35:27.904Z,100851.34
2018-07-15T00:36:31.328Z,100848.79
2018-07-15T00:37:34.730Z,100855.73
2018-07-15T00:38:38.260Z,100852.01
2018-07-15T00:39:41.662Z,100854.57
2018-07-15T00:40:45.121Z,100856.77
2018-07-15T00:41:48.545Z,100855.01
2018-07-15T00:42:52.288Z,100853.40
2018-07-15T00:43:55.732Z,100856.18
2018-07-15T00:44:59.196Z,100855.59
2018-07-15T00:46:02.694Z,100859.77
2018-07-15T00:47:06.123Z,100864.52
2018-07-15T00:48:09.688Z,100864.52
2018-07-15T00:49:13.272Z,100870.30
2018-07-15T00:50:16.771Z,100865.91
2018-07-15T00:51:20.236Z,100865.91
2018-07-15T00:52:23.652Z,100863.13
2018-07-15T00:53:27.065Z,100863.72
2018-07-15T00:54:30.578Z,100857.13
2018-07-15T00:55:33.986Z,100859.91
2018-07-15T00:56:37.428Z,100857.94
2018-07-15T00:57:40.831Z,100854.35
2018-07-15T00:58:44.239Z,100860.35
2018-07-15T00:59:47.606Z,100859.91
2018-07-15T01:00:56.290Z,100855.73
2018-07-15T01:01:59.708Z,100854.35
2018-07-15T01:03:03.118Z,100858.52
2018-07-15T01:04:07.018Z,100861.30
2018-07-15T01:05:10.577Z,100865.69
2018-07-15T01:06:14.018Z,100860.71
2018-07-15T01:07:17.433Z,100858.52
2018-07-15T01:08:20.848Z,100860.50
2018-07-15T01:09:24.263Z,100862.47
2018-07-15T01:10:27.728Z,100858.73
2018-07-15T01:11:31.168Z,100860.71
2018-07-15T01:12:34.629Z,100858.73
2018-07-15T01:13:38.056Z,100864.30
2018-07-15T01:14:41.442Z,100862.10
2018-07-15T01:15:44.844Z,100857.56
2018-07-15T01:16:48.235Z,100857.35
2018-07-15T01:17:51.646Z,100855.59
2018-07-15T01:18:55.048Z,100852.59
2018-07-15T01:19:58.450Z,100855.38
2018-07-15T01:21:01.830Z,100858.95
2018-07-15T01:22:05.298Z,100857.56
2018-07-15T01:23:08.721Z,100853.98
2018-07-15T01:24:12.153Z,100853.40
2018-07-15T01:25:15.559Z,100857.56
2018-07-15T01:26:18.983Z,100852.01
2018-07-15T01:27:22.394Z,100847.84
2018-07-15T01:28:25.806Z,100857.79
2018-07-15T01:29:29.226Z,100848.42
2018-07-15T01:30:32.656Z,100852.23
2018-07-15T01:31:36.214Z,100852.01
2018-07-15T01:32:39.669Z,100848.64
2018-07-15T01:33:43.077Z,100850.03
2018-07-15T01:34:46.472Z,100852.67
2018-07-15T01:35:49.846Z,100851.86
2018-07-15T01:36:53.303Z,100845.13
2018-07-15T01:37:56.712Z,100848.72
2018-07-15T01:39:00.181Z,100847.55
2018-07-15T01:40:03.605Z,100842.20
2018-07-15T01:41:07.061Z,100844.77
2018-07-15T01:42:10.468Z,100842.20
2018-07-15T01:43:13.876Z,100843.02
2018-07-15T01:44:17.303Z,100844.04
2018-07-15T01:45:20.741Z,100844.63
2018-07-15T01:46:24.122Z,100844.04
2018-07-15T01:47:27.506Z,100837.67
2018-07-15T01:48:30.944Z,100838.70
2018-07-15T01:49:34.360Z,100835.11
2018-07-15T01:50:37.766Z,100839.50
2018-07-15T01:51:41.225Z,100835.33
2018-07-15T01:52:44.624Z,100832.18
2018-07-15T01:53:48.285Z,100838.58
2018-07-15T01:54:51.816Z,100837.19
2018-07-15T01:55:55.242Z,100838.00
2018-07-15T01:56:58.672Z,100831.62
2018-07-15T01:58:02.594Z,100836.02
2018-07-15T01:59:06.167Z,100833.83
2018-07-15T02:00:09.966Z,100835.88
2018-07-15T02:01:13.381Z,100828.70
2018-07-15T02:02:16.827Z,100835.88
2018-07-15T02:03:20.249Z,100832.88
2018-07-15T02:04:23.642Z,100837.63
2018-07-15T02:05:27.098Z,100837.05
2018-07-15T02:06:30.534Z,100835.06
2018-07-15T02:07:33.957Z,100835.06
2018-07-15T02:08:37.354Z,100834.70
2018-07-15T02:09:40.847Z,100836.09
2018-07-15T02:10:44.302Z,100841.21
2018-07-15T02:11:47.729Z,100831.48
2018-07-15T02:12:51.108Z,100833.09
2018-07-15T02:13:54.512Z,100836.67
2018-07-15T02:14:58.123Z,100833.31
2018-07-15T02:16:01.537Z,100831.11
2018-07-15T02:17:04.989Z,100830.53
2018-07-15T02:18:08.417Z,100831.48
2018-07-15T02:19:11.840Z,100830.67
2018-07-15T02:20:15.227Z,100833.67
2018-07-15T02:21:18.650Z,100835.06
2018-07-15T02:22:22.075Z,100835.66
2018-07-15T02:23:25.568Z,100832.88
2018-07-15T02:24:28.988Z,100831.48
2018-07-15T02:25:32.382Z,100833.23
2018-07-15T02:26:35.789Z,100832.88
2018-07-15T02:27:39.206Z,100836.23
2018-07-15T02:28:42.659Z,100835.66
2018-07-15T02:29:46.059Z,100835.66
2018-07-15T02:30:49.458Z,100838.44
2018-07-15T02:31:52.850Z,100835.66
2018-07-15T02:32:56.257Z,100835.66
2018-07-15T02:33:59.652Z,100837.84
2018-07-15T02:35:03.142Z,100832.28
2018-07-15T02:36:06.647Z,100828.70
2018-07-15T02:37:10.354Z,100834.48
2018-07-15T02:38:13.750Z,100830.31
2018-07-15T02:39:17.186Z,100838.66
2018-07-15T02:40:20.593Z,100830.53
2018-07-15T02:41:24.023Z,100831.70
2018-07-15T02:42:27.431Z,100833.09
2018-07-15T02:43:30.834Z,100831.11
2018-07-15T02:44:34.241Z,100831.70
2018-07-15T02:45:37.743Z,100832.88
2018-07-15T02:46:41.203Z,100827.67
2018-07-15T02:47:44.641Z,100828.84
2018-07-15T02:48:48.066Z,100830.58
2018-07-15T02:49:51.470Z,100837.30
2018-07-15T02:50:54.921Z,100830.13
2018-07-15T02:51:58.339Z,100835.48
2018-07-15T02:53:01.787Z,100829.70
2018-07-15T02:54:05.248Z,100830.87
2018-07-15T02:55:08.688Z,100831.23
2018-07-15T02:56:12.135Z,100836.20
2018-07-15T02:57:15.560Z,100835.84
2018-07-15T02:58:18.962Z,100832.26
2018-07-15T02:59:22.468Z,100833.06
2018-07-15T03:00:28.712Z,100830.28
2018-07-15T03:01:32.146Z,100825.74
2018-07-15T03:02:35.748Z,100829.11
2018-07-15T03:03:39.168Z,100828.89
2018-07-15T03:04:42.610Z,100821.94
2018-07-15T03:05:46.028Z,100826.11
2018-07-15T03:06:49.401Z,100828.89
2018-07-15T03:07:52.801Z,100826.70
2018-07-15T03:08:56.196Z,100829.48
2018-07-15T03:09:59.599Z,100830.64
2018-07-15T03:11:03.027Z,100829.03
2018-07-15T03:12:06.496Z,100832.26
2018-07-15T03:13:09.950Z,100829.26
2018-07-15T03:14:13.371Z,100827.28
2018-07-15T03:15:16.758Z,100825.67
2018-07-15T03:16:20.232Z,100825.09
2018-07-15T03:17:23.788Z,100823.70
2018-07-15T03:18:27.118Z,100822.09
2018-07-15T03:19:30.526Z,100821.50
2018-07-15T03:20:33.916Z,100828.45
2018-07-15T03:21:37.369Z,100825.67
2018-07-15T03:22:40.761Z,100825.67
2018-07-15T03:23:44.161Z,100827.06
2018-07-15T03:24:47.554Z,100828.09
2018-07-15T03:25:50.937Z,100822.30
2018-07-15T03:26:54.472Z,100823.11
2018-07-15T03:27:57.854Z,100825.89
2018-07-15T03:29:01.263Z,100821.14
2018-07-15T03:30:04.809Z,100828.09
2018-07-15T03:31:08.263Z,100821.72
2018-07-15T03:32:11.731Z,100819.75
2018-07-15T03:33:15.133Z,100817.55
2018-07-15T03:34:18.519Z,100825.09
2018-07-15T03:35:21.939Z,100819.53
2018-07-15T03:36:25.353Z,100824.87
2018-07-15T03:37:28.792Z,100817.92
2018-07-15T03:38:32.228Z,100817.70
2018-07-15T03:39:35.651Z,100822.30
2018-07-15T03:40:39.052Z,100820.92
2018-07-15T03:41:42.448Z,100818.50
2018-07-15T03:42:46.106Z,100819.09
2018-07-15T03:43:50.115Z,100815.72
2018-07-15T03:44:53.559Z,100821.28
2018-07-15T03:45:56.964Z,100820.48
2018-07-15T03:47:00.422Z,100813.53
2018-07-15T03:48:03.901Z,100816.09
2018-07-15T03:49:07.340Z,100819.67
2018-07-15T03:50:10.790Z,100816.09
2018-07-15T03:51:14.217Z,100816.09
2018-07-15T03:52:17.616Z,100815.28
2018-07-15T03:53:21.030Z,100818.88
2018-07-15T03:54:24.415Z,100818.28
2018-07-15T03:55:27.823Z,100818.28
2018-07-15T03:56:31.262Z,100816.09
2018-07-15T03:57:34.794Z,100818.88
2018-07-15T03:58:38.193Z,100808.55
2018-07-15T03:59:41.620Z,100816.89
2018-07-15T04:00:45.182Z,100810.53
2018-07-15T04:01:48.596Z,100817.70
2018-07-15T04:02:52.003Z,100813.31
2018-07-15T04:03:55.425Z,100816.31
2018-07-15T04:04:58.833Z,100810.16
2018-07-15T04:06:02.251Z,100812.36
2018-07-15T04:07:05.707Z,100814.77
2018-07-15T04:08:09.137Z,100813.16
2018-07-15T04:09:12.558Z,100808.99
2018-07-15T04:10:15.981Z,100810.60
2018-07-15T04:11:19.390Z,100812.58
2018-07-15T04:12:22.814Z,100808.62
2018-07-15T04:13:26.208Z,100809.21
2018-07-15T04:14:29.633Z,100807.02
2018-07-15T04:15:33.069Z,100805.63
2018-07-15T04:16:36.469Z,100802.63
2018-07-15T04:17:39.910Z,100804.60
2018-07-15T04:18:43.325Z,100803.80
2018-07-15T04:19:46.786Z,100805.77
2018-07-15T04:20:50.220Z,100802.19
2018-07-15T04:21:53.608Z,100807.53
2018-07-15T04:22:57.009Z,100802.55
2018-07-15T04:24:00.431Z,100804.53
2018-07-15T04:25:03.893Z,100809.50
2018-07-15T04:26:07.290Z,100805.11
2018-07-15T04:27:10.791Z,100806.50
2018-07-15T04:28:14.173Z,100807.09
2018-07-15T04:29:17.590Z,100806.87
2018-07-15T04:30:21.075Z,100806.63
2018-07-15T04:31:24.470Z,100804.09
2018-07-15T04:32:27.860Z,100803.63
2018-07-15T04:33:31.282Z,100810.57
2018-07-15T04:34:34.705Z,100799.02
2018-07-15T04:35:38.162Z,100807.35
2018-07-15T04:36:41.556Z,100801.58
2018-07-15T04:37:44.958Z,100804.35
2018-07-15T04:38:48.391Z,100801.35
2018-07-15T04:39:51.832Z,100802.74
2018-07-15T04:40:55.248Z,100803.55
2018-07-15T04:41:58.651Z,100796.81
2018-07-15T04:43:02.096Z,100801.20
2018-07-15T04:44:05.889Z,100800.84
2018-07-15T04:45:09.316Z,100803.84
2018-07-15T04:46:12.778Z,100799.67
2018-07-15T04:47:16.182Z,100806.87
2018-07-15T04:48:19.585Z,100803.84
2018-07-15T04:49:23.016Z,100801.06
2018-07-15T04:50:26.437Z,100802.11
2018-07-15T04:51:29.883Z,100803.29
2018-07-15T04:52:33.536Z,100801.90
2018-07-15T04:53:37.035Z,100804.09
2018-07-15T04:54:40.429Z,100806.06
2018-07-15T04:55:43.849Z,100805.48
2018-07-15T04:56:47.316Z,100803.29
2018-07-15T04:57:50.756Z,100805.23
2018-07-15T04:58:54.337Z,100804.89
2018-07-15T05:00:00.150Z,100806.06
2018-07-15T05:01:04.046Z,100801.31
2018-07-15T05:02:07.569Z,100808.01
2018-07-15T05:03:10.907Z,100805.81
2018-07-15T05:04:14.930Z,100806.40
2018-07-15T05:05:18.352Z,100802.81
2018-07-15T05:06:21.737Z,100801.42
2018-07-15T05:07:25.148Z,100800.84
2018-07-15T05:08:28.593Z,100802.02
2018-07-15T05:09:33.578Z,100805.59
2018-07-15T05:10:37.021Z,100802.81
2018-07-15T05:11:40.443Z,100806.40
2018-07-15T05:12:43.903Z,100805.02
2018-07-15T05:13:47.290Z,100803.41
2018-07-15T05:14:50.760Z,100798.42
2018-07-15T05:15:54.147Z,100809.18
2018-07-15T05:16:57.555Z,100802.59
2018-07-15T05:18:01.071Z,100807.57
2018-07-15T05:19:04.568Z,100800.41
2018-07-15T05:20:07.975Z,100803.77
2018-07-15T05:21:11.381Z,100801.13
2018-07-15T05:22:14.750Z,100798.35
2018-07-15T05:23:18.202Z,100807.28
2018-07-15T05:24:22.437Z,100808.67
2018-07-15T05:25:25.833Z,100806.70
2018-07-15T05:26:29.304Z,100804.28
2018-07-15T05:27:32.769Z,100801.72
2018-07-15T05:28:36.291Z,100799.16
2018-07-15T05:29:39.694Z,100802.16
2018-07-15T05:30:43.144Z,100806.33
2018-07-15T05:31:46.552Z,100807.13
2018-07-15T05:32:49.988Z,100802.96
2018-07-15T05:33:53.423Z,100801.80
2018-07-15T05:34:56.886Z,100805.96
2018-07-15T05:36:00.240Z,100805.59
2018-07-15T05:37:03.680Z,100810.57
2018-07-15T05:38:07.068Z,100807.57
2018-07-15T05:39:10.490Z,100810.35
2018-07-15T05:40:13.913Z,100812.33
2018-07-15T05:41:17.322Z,100808.74
2018-07-15T05:42:20.712Z,100811.52
2018-07-15T05:43:24.152Z,100811.30
2018-07-15T05:44:27.545Z,100815.25
2018-07-15T05:45:30.965Z,100812.25
2018-07-15T05:46:34.394Z,100815.25
2018-07-15T05:47:37.833Z,100809.47
2018-07-15T05:48:41.213Z,100814.23
2018-07-15T05:49:44.632Z,100816.42
2018-07-15T05:50:48.014Z,100818.98
2018-07-15T05:51:51.544Z,100817.23
2018-07-15T05:52:54.972Z,100814.81
2018-07-15T05:53:58.368Z,100821.17
2018-07-15T05:55:01.778Z,100824.91
2018-07-15T05:56:06.295Z,100824.10
2018-07-15T05:57:09.703Z,100823.73
2018-07-15T05:58:13.101Z,100821.32
2018-07-15T05:59:16.534Z,100825.27
2018-07-15T06:00:19.938Z,100820.30
2018-07-15T06:01:23.619Z,100823.66
2018-07-15T06:02:27.023Z,100829.36
2018-07-15T06:03:31.430Z,100830.17
2018-07-15T06:04:34.844Z,100827.17
2018-07-15T06:05:38.297Z,100825.53
2018-07-15T06:06:41.712Z,100829.11
2018-07-15T06:07:45.095Z,100825.53
2018-07-15T06:08:48.512Z,100827.97
2018-07-15T06:09:51.928Z,100831.55
2018-07-15T06:10:55.400Z,100834.12
2018-07-15T06:11:58.819Z,100830.75
2018-07-15T06:13:02.249Z,100831.55
2018-07-15T06:14:05.698Z,100833.97
2018-07-15T06:15:09.117Z,100831.55
2018-07-15T06:16:12.560Z,100835.73
2018-07-15T06:17:15.965Z,100831.34
2018-07-15T06:18:19.411Z,100834.67
2018-07-15T06:19:22.879Z,100833.87
2018-07-15T06:20:26.313Z,100836.64
2018-07-15T06:21:29.815Z,100830.64
2018-07-15T06:22:33.259Z,100837.59
2018-07-15T06:23:36.686Z,100830.64
2018-07-15T06:24:40.160Z,100834.59
2018-07-15T06:25:43.560Z,100831.59
2018-07-15T06:26:46.970Z,100833.20
2018-07-15T06:27:50.380Z,100832.63
2018-07-15T06:28:53.914Z,100834.59
2018-07-15T06:29:57.310Z,100831.23
2018-07-15T06:31:00.708Z,100832.63
2018-07-15T06:32:04.179Z,100832.63
2018-07-15T06:33:07.618Z,100832.03
2018-07-15T06:34:11.017Z,100833.64
2018-07-15T06:35:14.432Z,100838.03
2018-07-15T06:36:17.836Z,100834.45
2018-07-15T06:37:21.313Z,100836.06
2018-07-15T06:38:24.766Z,100833.28
2018-07-15T06:39:28.156Z,100835.51
2018-07-15T06:40:31.921Z,100834.92
2018-07-15T06:41:35.366Z,100828.78
2018-07-15T06:42:38.780Z,100830.61
2018-07-15T06:43:42.213Z,100829.00
2018-07-15T06:44:45.618Z,100821.83
2018-07-15T06:45:49.003Z,100823.00
2018-07-15T06:46:52.509Z,100823.03
2018-07-15T06:47:56.025Z,100828.22
2018-07-15T06:49:03.364Z,100824.30
2018-07-15T06:50:12.963Z,100834.14
2018-07-15T06:51:17.333Z,100827.50
2018-07-15T06:52:21.042Z,100827.64
2018-07-15T06:53:24.600Z,100826.31
2018-07-15T06:54:28.304Z,100823.67
2018-07-15T06:55:32.009Z,100823.92
2018-07-15T06:56:35.397Z,100824.87
2018-07-15T06:57:38.861Z,100822.01
2018-07-15T06:58:44.416Z,100824.78
2018-07-15T06:59:47.821Z,100819.23
2018-07-15T07:00:51.469Z,100817.84
2018-07-15T07:01:54.945Z,100820.40
2018-07-15T07:02:58.722Z,100816.15
2018-07-15T07:04:02.242Z,100820.42
2018-07-15T07:05:05.716Z,100822.75
2018-07-15T07:06:09.160Z,100820.11
2018-07-15T07:07:12.650Z,100823.47
2018-07-15T07:08:16.198Z,100821.64
2018-07-15T07:09:19.612Z,100819.00
2018-07-15T07:10:22.999Z,100817.47
2018-07-15T07:11:26.510Z,100824.63
2018-07-15T07:12:30.011Z,100816.53
2018-07-15T07:13:33.435Z,100819.30
2018-07-15T07:14:36.963Z,100823.69
2018-07-15T07:15:40.385Z,100821.86
2018-07-15T07:16:43.803Z,100819.67
2018-07-15T07:17:47.193Z,100822.80
2018-07-15T07:18:50.626Z,100820.03
2018-07-15T07:19:54.060Z,100823.16
2018-07-15T07:20:57.526Z,100825.66
2018-07-15T07:22:00.968Z,100818.64
2018-07-15T07:23:04.452Z,100821.19
2018-07-15T07:24:07.864Z,100824.19
2018-07-15T07:25:11.377Z,100815.64
2018-07-15T07:26:14.783Z,100817.97
2018-07-15T07:27:18.252Z,100819.58
2018-07-15T07:28:21.818Z,100814.03
2018-07-15T07:29:25.292Z,100819.58
2018-07-15T07:30:28.893Z,100820.16
2018-07-15T07:31:32.428Z,100819.36
2018-07-15T07:32:36.279Z,100818.55
2018-07-15T07:33:39.822Z,100823.52
2018-07-15T07:34:43.387Z,100823.30
2018-07-15T07:35:46.959Z,100823.05
2018-07-15T07:36:50.979Z,100822.23
2018-07-15T07:37:54.476Z,100819.24
2018-07-15T07:38:57.908Z,100817.27
2018-07-15T07:40:01.323Z,100816.69
2018-07-15T07:41:04.877Z,100814.27
2018-07-15T07:42:08.507Z,100812.30
2018-07-15T07:43:11.925Z,100810.69
2018-07-15T07:44:15.390Z,100810.69
2018-07-15T07:45:18.860Z,100812.88
2018-07-15T07:46:22.364Z,100811.72
2018-07-15T07:47:25.763Z,100808.94
2018-07-15T07:48:29.157Z,100814.49
2018-07-15T07:49:32.548Z,100808.72
2018-07-15T07:50:35.926Z,100812.64
2018-07-15T07:51:39.377Z,100811.25
2018-07-15T07:52:42.815Z,100810.22
2018-07-15T07:53:46.226Z,100815.41
2018-07-15T07:54:49.773Z,100807.67
2018-07-15T07:55:53.311Z,100808.48
2018-07-15T07:56:56.891Z,100809.28
2018-07-15T07:58:00.596Z,100808.92
2018-07-15T07:59:04.224Z,100811.48
2018-07-15T08:00:07.831Z,100812.73
2018-07-15T08:01:11.481Z,100810.75
2018-07-15T08:02:15.159Z,100811.34
2018-07-15T08:03:19.660Z,100807.17
2018-07-15T08:04:23.088Z,100807.89
2018-07-15T08:05:26.559Z,100804.31
2018-07-15T08:06:30.006Z,100800.95
2018-07-15T08:07:33.457Z,100806.86
2018-07-15T08:08:37.125Z,100799.12
2018-07-15T08:09:40.538Z,100799.92
2018-07-15T08:10:43.971Z,100805.25
2018-07-15T08:11:47.417Z,100803.86
2018-07-15T08:12:50.847Z,100799.45
2018-07-15T08:13:54.238Z,100803.03
2018-07-15T08:14:57.650Z,100800.25
2018-07-15T08:16:01.109Z,100799.45
2018-07-15T08:17:04.552Z,100792.06
2018-07-15T08:18:08.053Z,100796.92
2018-07-15T08:19:11.691Z,100799.92
2018-07-15T08:20:15.275Z,100798.54
2018-07-15T08:21:18.704Z,100795.84
2018-07-15T08:22:22.362Z,100796.87
2018-07-15T08:23:25.981Z,100795.48
2018-07-15T08:24:29.392Z,100796.29
2018-07-15T08:25:32.852Z,100796.87
2018-07-15T08:26:36.685Z,100792.93
2018-07-15T08:27:40.211Z,100792.35
2018-07-15T08:28:43.640Z,100789.80
2018-07-15T08:29:58.448Z,100793.37
2018-07-15T08:31:13.920Z,100788.63
2018-07-15T08:32:17.727Z,100794.98
2018-07-15T08:33:21.328Z,100786.66
2018-07-15T08:34:24.831Z,100788.05
2018-07-15T08:35:29.796Z,100790.46
2018-07-15T08:36:33.212Z,100789.30
2018-07-15T08:37:36.646Z,100790.10
2018-07-15T08:38:40.417Z,100786.74
2018-07-15T08:39:44.017Z,100793.10
2018-07-15T08:40:47.555Z,100789.41
2018-07-15T08:41:51.038Z,100788.02
2018-07-15T08:42:54.487Z,100788.02
2018-07-15T08:43:57.922Z,100794.46
2018-07-15T08:45:01.383Z,100795.84
2018-07-15T08:46:05.161Z,100793.44
2018-07-15T08:47:08.691Z,100791.10
2018-07-15T08:48:12.087Z,100791.69
2018-07-15T08:49:15.462Z,100793.88
2018-07-15T08:50:18.964Z,100786.13
2018-07-15T08:51:22.379Z,100791.69
2018-07-15T08:52:29.402Z,100789.35
2018-07-15T08:53:33.079Z,100785.19
2018-07-15T08:54:36.731Z,100790.16
2018-07-15T08:55:40.106Z,100781.02
2018-07-15T08:56:43.548Z,100786.35
2018-07-15T08:57:46.974Z,100785.19
2018-07-15T08:58:50.400Z,100783.80
2018-07-15T08:59:53.780Z,100781.02
2018-07-15T09:00:57.248Z,100776.86
2018-07-15T09:02:00.643Z,100781.24
2018-07-15T09:03:04.076Z,100779.05
2018-07-15T09:04:07.525Z,100785.41
2018-07-15T09:05:10.970Z,100786.80
2018-07-15T09:06:14.394Z,100789.58
2018-07-15T09:07:17.790Z,100791.19
2018-07-15T09:08:21.526Z,100788.05
2018-07-15T09:09:24.973Z,100783.30
2018-07-15T09:10:28.614Z,100781.33
2018-07-15T09:11:32.049Z,100784.91
2018-07-15T09:12:35.858Z,100782.13
2018-07-15T09:13:39.263Z,100775.98
2018-07-15T09:14:42.658Z,100777.96
2018-07-15T09:15:46.366Z,100776.80
2018-07-15T09:16:49.975Z,100774.02
2018-07-15T09:17:53.499Z,100779.83
2018-07-15T09:18:56.924Z,100778.98
2018-07-15T09:20:03.824Z,100785.38
2018-07-15T09:21:07.502Z,100779.23
2018-07-15T09:22:10.923Z,100775.66
2018-07-15T09:23:14.487Z,100782.02
2018-07-15T09:24:18.075Z,100771.49
2018-07-15T09:25:21.496Z,100770.66
2018-07-15T09:26:24.970Z,100775.66
2018-07-15T09:27:28.410Z,100772.88
2018-07-15T09:28:31.820Z,100775.66
2018-07-15T09:29:35.268Z,100775.41
2018-07-15T09:30:38.660Z,100775.08
2018-07-15T09:31:42.136Z,100779.23
2018-07-15T09:32:45.727Z,100779.23
2018-07-15T09:33:49.338Z,100771.71
2018-07-15T09:34:52.757Z,100769.85
2018-07-15T09:35:56.564Z,100777.85
2018-07-15T09:37:00.208Z,100776.69
2018-07-15T09:38:03.639Z,100778.08
2018-07-15T09:39:08.144Z,100783.41
2018-07-15T09:40:11.620Z,100776.46
2018-07-15T09:41:15.142Z,100777.27
2018-07-15T09:42:18.536Z,100775.66
2018-07-15T09:43:22.035Z,100770.33
2018-07-15T09:44:25.466Z,100777.85
2018-07-15T09:45:29.055Z,100780.85
2018-07-15T09:46:32.534Z,100775.88
2018-07-15T09:47:35.980Z,100774.71
2018-07-15T09:48:39.430Z,100773.33
2018-07-15T09:49:42.925Z,100772.16
2018-07-15T09:50:46.360Z,100779.09
2018-07-15T09:51:49.926Z,100775.73
2018-07-15T09:52:53.346Z,100772.37
2018-07-15T09:53:57.252Z,100773.77
2018-07-15T09:55:01.081Z,100773.18
2018-07-15T09:56:09.187Z,100772.81
2018-07-15T09:57:20.279Z,100769.23
2018-07-15T09:58:25.316Z,100770.04
2018-07-15T09:59:28.736Z,100767.48
2018-07-15T10:00:37.457Z,100768.66
2018-07-15T10:01:40.946Z,100768.66
2018-07-15T10:02:44.735Z,100768.06
2018-07-15T10:03:48.166Z,100771.66
2018-07-15T10:04:51.590Z,100764.70
2018-07-15T10:05:56.384Z,100766.31
2018-07-15T10:06:59.800Z,100759.16
2018-07-15T10:08:03.368Z,100766.09
2018-07-15T10:09:07.472Z,100761.34
2018-07-15T10:10:10.865Z,100763.32
2018-07-15T10:11:14.286Z,100766.31
2018-07-15T10:12:17.695Z,100763.76
2018-07-15T10:13:21.118Z,100755.42
2018-07-15T10:14:24.535Z,100761.56
2018-07-15T10:15:27.972Z,100756.02
2018-07-15T10:16:31.368Z,100760.98
2018-07-15T10:17:34.822Z,100754.63
2018-07-15T10:18:38.222Z,100753.81
2018-07-15T10:19:41.719Z,100761.56
2018-07-15T10:20:45.145Z,100758.20
2018-07-15T10:21:48.567Z,100757.98
2018-07-15T10:22:52.007Z,100752.65
2018-07-15T10:23:55.456Z,100755.42
2018-07-15T10:24:58.852Z,100757.84
2018-07-15T10:26:02.294Z,100744.53
2018-07-15T10:27:05.798Z,100752.88
2018-07-15T10:28:09.237Z,100749.51
2018-07-15T10:29:12.614Z,100750.90
2018-07-15T10:30:16.029Z,100752.28
2018-07-15T10:31:19.438Z,100751.70
2018-07-15T10:32:22.868Z,100748.92
2018-07-15T10:33:26.334Z,100747.75
2018-07-15T10:34:29.711Z,100750.53
2018-07-15T10:35:33.123Z,100754.11
2018-07-15T10:36:36.532Z,100749.84
2018-07-15T10:37:39.943Z,100747.06
2018-07-15T10:38:43.344Z,100745.89
2018-07-15T10:39:46.793Z,100744.84
2018-07-15T10:40:50.193Z,100748.08
2018-07-15T10:41:53.584Z,100741.72
2018-07-15T10:42:57.845Z,100747.50
2018-07-15T10:44:01.293Z,100744.72
2018-07-15T10:45:04.817Z,100744.72
2018-07-15T10:46:08.311Z,100746.11
2018-07-15T10:47:11.750Z,100745.75
2018-07-15T10:48:15.383Z,100742.53
2018-07-15T10:49:18.794Z,100746.33
2018-07-15T10:50:22.228Z,100740.77
2018-07-15T10:51:25.661Z,100738.58
2018-07-15T10:52:29.121Z,100746.33
2018-07-15T10:53:32.519Z,100737.77
2018-07-15T10:54:36.407Z,100745.52
2018-07-15T10:55:39.848Z,100740.77
2018-07-15T10:56:43.258Z,100740.77
2018-07-15T10:57:46.697Z,100743.55
2018-07-15T10:58:50.086Z,100739.97
2018-07-15T10:59:54.017Z,100742.16
2018-07-15T11:00:58.600Z,100741.80
2018-07-15T11:02:02.102Z,100738.22
2018-07-15T11:03:05.651Z,100738.44
2018-07-15T11:04:09.073Z,100740.27
2018-07-15T11:05:12.455Z,100734.92
2018-07-15T11:06:15.893Z,100732.40
2018-07-15T11:07:19.359Z,100734.81
2018-07-15T11:08:22.769Z,100727.87
2018-07-15T11:09:26.233Z,100723.34
2018-07-15T11:10:31.624Z,100728.89
2018-07-15T11:11:35.061Z,100723.34
2018-07-15T11:12:38.480Z,100721.95
2018-07-15T11:13:41.906Z,100718.36
2018-07-15T11:14:45.342Z,100726.91
2018-07-15T11:15:48.794Z,100724.14
2018-07-15T11:16:52.201Z,100731.08
2018-07-15T11:17:55.663Z,100724.72
2018-07-15T11:18:59.088Z,100727.50
2018-07-15T11:20:02.617Z,100724.94
2018-07-15T11:21:06.604Z,100718.36
2018-07-15T11:22:10.950Z,100714.41
2018-07-15T11:23:16.091Z,100720.12
2018-07-15T11:24:20.769Z,100721.73
2018-07-15T11:25:24.502Z,100717.12
2018-07-15T11:26:27.916Z,100722.89
2018-07-15T11:27:31.364Z,100719.31
2018-07-15T11:28:35.124Z,100720.12
2018-07-15T11:29:38.642Z,100722.09
2018-07-15T11:30:42.282Z,100718.26
2018-07-15T11:31:45.912Z,100726.26
2018-07-15T11:32:51.543Z,100724.65
2018-07-15T11:33:54.947Z,100713.28
2018-07-15T11:34:58.513Z,100717.70
2018-07-15T11:36:01.953Z,100719.89
2018-07-15T11:37:05.636Z,100712.70
2018-07-15T11:38:09.119Z,100710.51
2018-07-15T11:39:12.563Z,100711.56
2018-07-15T11:40:16.004Z,100711.09
2018-07-15T11:41:21.768Z,100711.31
2018-07-15T11:42:25.319Z,100706.34
2018-07-15T11:43:28.716Z,100701.37
2018-07-15T11:44:32.281Z,100705.76
2018-07-15T11:45:35.721Z,100707.14
2018-07-15T11:46:39.158Z,100708.31
2018-07-15T11:47:42.721Z,100707.14
2018-07-15T11:48:46.159Z,100702.98
2018-07-15T11:49:49.576Z,100701.59
2018-07-15T11:50:52.957Z,100696.62
2018-07-15T11:51:56.354Z,100697.20
2018-07-15T11:52:59.751Z,100694.64
2018-07-15T11:54:03.181Z,100694.42
2018-07-15T11:55:07.476Z,100699.39
2018-07-15T11:56:10.932Z,100701.37
2018-07-15T11:57:14.376Z,100694.89
2018-07-15T11:58:17.794Z,100698.25
2018-07-15T11:59:21.226Z,100692.11
2018-07-15T12:00:24.636Z,100688.75
2018-07-15T12:01:28.112Z,100688.17
2018-07-15T12:02:31.537Z,100683.41
2018-07-15T12:03:35.016Z,100682.61
2018-07-15T12:04:38.448Z,100684.00
2018-07-15T12:05:41.863Z,100689.19